sensor_id;sensor_type;location;lat;lon;timestamp;P1;durP1;ratioP1;P2;durP2;ratioP2
17330;SDS011;8783;52.448;4.638;2023-11-21T00:01:16;9.80;;;4.50;;
17330;SDS011;8783;52.448;4.638;2023-11-21T00:03:42;7.65;;;4.07;;
17330;SDS011;8783;52.448;4.638;2023-11-21T00:06:08;10.77;;;3.70;;
17330;SDS011;8783;52.448;4.638;2023-11-21T00:08:35;7.65;;;4.07;;
17330;SDS011;8783;52.448;4.638;2023-11-21T00:11:01;6.25;;;3.72;;
17330;SDS011;8783;52.448;4.638;2023-11-21T00:13:27;8.07;;;4.05;;
17330;SDS011;8783;52.448;4.638;2023-11-21T00:15:53;6.47;;;3.47;;
17330;SDS011;8783;52.448;4.638;2023-11-21T00:18:18;6.97;;;3.65;;
17330;SDS011;8783;52.448;4.638;2023-11-21T00:20:45;6.72;;;3.72;;
17330;SDS011;8783;52.448;4.638;2023-11-21T00:23:11;5.88;;;3.72;;
17330;SDS011;8783;52.448;4.638;2023-11-21T00:25:37;7.60;;;3.88;;
17330;SDS011;8783;52.448;4.638;2023-11-21T00:28:02;7.50;;;3.92;;
17330;SDS011;8783;52.448;4.638;2023-11-21T00:30:28;5.47;;;3.50;;
17330;SDS011;8783;52.448;4.638;2023-11-21T00:32:54;8.25;;;4.07;;
17330;SDS011;8783;52.448;4.638;2023-11-21T00:35:20;6.07;;;3.42;;
17330;SDS011;8783;52.448;4.638;2023-11-21T00:37:45;7.30;;;3.20;;
17330;SDS011;8783;52.448;4.638;2023-11-21T00:40:11;6.28;;;3.40;;
17330;SDS011;8783;52.448;4.638;2023-11-21T00:42:37;7.20;;;3.63;;
17330;SDS011;8783;52.448;4.638;2023-11-21T00:45:03;6.65;;;3.17;;
17330;SDS011;8783;52.448;4.638;2023-11-21T00:47:29;6.72;;;3.38;;
17330;SDS011;8783;52.448;4.638;2023-11-21T00:49:54;8.00;;;3.40;;
17330;SDS011;8783;52.448;4.638;2023-11-21T00:52:20;6.95;;;3.30;;
17330;SDS011;8783;52.448;4.638;2023-11-21T00:54:45;8.60;;;3.90;;
17330;SDS011;8783;52.448;4.638;2023-11-21T00:57:13;5.93;;;3.70;;
17330;SDS011;8783;52.448;4.638;2023-11-21T00:59:38;6.18;;;3.20;;
17330;SDS011;8783;52.448;4.638;2023-11-21T01:02:04;7.07;;;3.35;;
17330;SDS011;8783;52.448;4.638;2023-11-21T01:04:30;7.50;;;3.10;;
17330;SDS011;8783;52.448;4.638;2023-11-21T01:06:57;6.18;;;3.25;;
17330;SDS011;8783;52.448;4.638;2023-11-21T01:09:23;6.65;;;2.75;;
17330;SDS011;8783;52.448;4.638;2023-11-21T01:11:49;5.32;;;2.60;;
17330;SDS011;8783;52.448;4.638;2023-11-21T01:14:14;5.43;;;3.30;;
17330;SDS011;8783;52.448;4.638;2023-11-21T01:16:42;5.15;;;2.67;;
17330;SDS011;8783;52.448;4.638;2023-11-21T01:19:08;5.55;;;2.85;;
17330;SDS011;8783;52.448;4.638;2023-11-21T01:21:34;4.60;;;2.67;;
17330;SDS011;8783;52.448;4.638;2023-11-21T01:23:59;4.70;;;2.67;;
17330;SDS011;8783;52.448;4.638;2023-11-21T01:26:25;4.50;;;2.60;;
17330;SDS011;8783;52.448;4.638;2023-11-21T01:28:51;4.28;;;2.83;;
17330;SDS011;8783;52.448;4.638;2023-11-21T01:31:16;5.18;;;2.47;;
17330;SDS011;8783;52.448;4.638;2023-11-21T01:33:42;5.15;;;2.67;;
17330;SDS011;8783;52.448;4.638;2023-11-21T01:36:07;6.80;;;2.60;;
17330;SDS011;8783;52.448;4.638;2023-11-21T01:38:33;7.15;;;2.90;;
17330;SDS011;8783;52.448;4.638;2023-11-21T01:40:59;7.15;;;2.78;;
17330;SDS011;8783;52.448;4.638;2023-11-21T01:43:26;4.85;;;2.40;;
17330;SDS011;8783;52.448;4.638;2023-11-21T01:45:52;4.60;;;2.60;;
17330;SDS011;8783;52.448;4.638;2023-11-21T01:48:22;4.35;;;2.28;;
17330;SDS011;8783;52.448;4.638;2023-11-21T01:50:48;4.57;;;2.40;;
17330;SDS011;8783;52.448;4.638;2023-11-21T01:53:14;5.72;;;2.42;;
17330;SDS011;8783;52.448;4.638;2023-11-21T01:55:41;3.83;;;2.15;;
17330;SDS011;8783;52.448;4.638;2023-11-21T01:58:08;5.97;;;2.70;;
17330;SDS011;8783;52.448;4.638;2023-11-21T02:00:35;4.47;;;2.25;;
17330;SDS011;8783;52.448;4.638;2023-11-21T02:03:00;4.93;;;2.65;;
17330;SDS011;8783;52.448;4.638;2023-11-21T02:05:26;4.15;;;2.17;;
17330;SDS011;8783;52.448;4.638;2023-11-21T02:07:52;3.88;;;2.08;;
17330;SDS011;8783;52.448;4.638;2023-11-21T02:10:18;3.97;;;2.22;;
17330;SDS011;8783;52.448;4.638;2023-11-21T02:12:48;4.70;;;2.25;;
17330;SDS011;8783;52.448;4.638;2023-11-21T02:15:15;3.97;;;2.10;;
17330;SDS011;8783;52.448;4.638;2023-11-21T02:17:45;3.90;;;2.00;;
17330;SDS011;8783;52.448;4.638;2023-11-21T02:20:18;3.92;;;2.20;;
17330;SDS011;8783;52.448;4.638;2023-11-21T02:23:03;4.00;;;2.10;;
17330;SDS011;8783;52.448;4.638;2023-11-21T02:25:30;4.97;;;1.95;;
17330;SDS011;8783;52.448;4.638;2023-11-21T02:27:57;3.75;;;2.10;;
17330;SDS011;8783;52.448;4.638;2023-11-21T02:30:25;4.22;;;2.42;;
17330;SDS011;8783;52.448;4.638;2023-11-21T02:32:51;3.10;;;1.80;;
17330;SDS011;8783;52.448;4.638;2023-11-21T02:35:20;4.20;;;2.08;;
17330;SDS011;8783;52.448;4.638;2023-11-21T02:37:49;4.07;;;2.22;;
17330;SDS011;8783;52.448;4.638;2023-11-21T02:40:15;4.85;;;2.15;;
17330;SDS011;8783;52.448;4.638;2023-11-21T02:42:45;3.97;;;2.05;;
17330;SDS011;8783;52.448;4.638;2023-11-21T02:45:14;3.42;;;1.75;;
17330;SDS011;8783;52.448;4.638;2023-11-21T02:47:41;4.00;;;2.15;;
17330;SDS011;8783;52.448;4.638;2023-11-21T02:50:08;3.95;;;1.85;;
17330;SDS011;8783;52.448;4.638;2023-11-21T02:52:34;3.22;;;1.92;;
17330;SDS011;8783;52.448;4.638;2023-11-21T02:55:01;3.63;;;1.88;;
17330;SDS011;8783;52.448;4.638;2023-11-21T02:57:30;5.95;;;2.35;;
17330;SDS011;8783;52.448;4.638;2023-11-21T02:59:55;3.85;;;1.60;;
17330;SDS011;8783;52.448;4.638;2023-11-21T03:02:21;3.55;;;1.80;;
17330;SDS011;8783;52.448;4.638;2023-11-21T03:04:47;3.72;;;1.75;;
17330;SDS011;8783;52.448;4.638;2023-11-21T03:07:14;3.13;;;1.75;;
17330;SDS011;8783;52.448;4.638;2023-11-21T03:09:40;3.35;;;1.88;;
17330;SDS011;8783;52.448;4.638;2023-11-21T03:12:05;3.08;;;1.80;;
17330;SDS011;8783;52.448;4.638;2023-11-21T03:14:31;3.67;;;1.75;;
17330;SDS011;8783;52.448;4.638;2023-11-21T03:16:57;4.22;;;2.00;;
17330;SDS011;8783;52.448;4.638;2023-11-21T03:19:22;3.17;;;1.80;;
17330;SDS011;8783;52.448;4.638;2023-11-21T03:21:48;4.00;;;1.88;;
17330;SDS011;8783;52.448;4.638;2023-11-21T03:24:14;2.78;;;1.90;;
17330;SDS011;8783;52.448;4.638;2023-11-21T03:26:44;2.63;;;1.42;;
17330;SDS011;8783;52.448;4.638;2023-11-21T03:29:09;4.35;;;1.90;;
17330;SDS011;8783;52.448;4.638;2023-11-21T03:31:35;3.08;;;1.65;;
17330;SDS011;8783;52.448;4.638;2023-11-21T03:34:01;2.75;;;1.55;;
17330;SDS011;8783;52.448;4.638;2023-11-21T03:36:26;2.45;;;1.38;;
17330;SDS011;8783;52.448;4.638;2023-11-21T03:38:52;2.35;;;1.30;;
17330;SDS011;8783;52.448;4.638;2023-11-21T03:41:18;2.63;;;1.70;;
17330;SDS011;8783;52.448;4.638;2023-11-21T03:43:44;3.67;;;1.65;;
17330;SDS011;8783;52.448;4.638;2023-11-21T03:46:09;2.60;;;1.45;;
17330;SDS011;8783;52.448;4.638;2023-11-21T03:48:35;2.45;;;1.30;;
17330;SDS011;8783;52.448;4.638;2023-11-21T03:51:01;2.50;;;1.60;;
17330;SDS011;8783;52.448;4.638;2023-11-21T03:53:26;2.28;;;1.50;;
17330;SDS011;8783;52.448;4.638;2023-11-21T03:55:52;3.67;;;1.38;;
17330;SDS011;8783;52.448;4.638;2023-11-21T03:58:17;2.25;;;1.48;;
17330;SDS011;8783;52.448;4.638;2023-11-21T04:00:43;2.75;;;1.60;;
17330;SDS011;8783;52.448;4.638;2023-11-21T04:03:09;2.33;;;1.30;;
17330;SDS011;8783;52.448;4.638;2023-11-21T04:05:34;2.28;;;1.33;;
17330;SDS011;8783;52.448;4.638;2023-11-21T04:08:00;3.00;;;1.38;;
17330;SDS011;8783;52.448;4.638;2023-11-21T04:10:25;3.00;;;1.42;;
17330;SDS011;8783;52.448;4.638;2023-11-21T04:12:51;1.67;;;1.20;;
17330;SDS011;8783;52.448;4.638;2023-11-21T04:15:17;3.53;;;1.45;;
17330;SDS011;8783;52.448;4.638;2023-11-21T04:17:42;3.47;;;1.30;;
17330;SDS011;8783;52.448;4.638;2023-11-21T04:20:08;2.50;;;1.10;;
17330;SDS011;8783;52.448;4.638;2023-11-21T04:22:38;2.45;;;1.45;;
17330;SDS011;8783;52.448;4.638;2023-11-21T04:25:09;2.15;;;1.23;;
17330;SDS011;8783;52.448;4.638;2023-11-21T04:27:36;3.30;;;1.40;;
17330;SDS011;8783;52.448;4.638;2023-11-21T04:30:03;3.45;;;1.38;;
17330;SDS011;8783;52.448;4.638;2023-11-21T04:32:30;3.42;;;1.35;;
17330;SDS011;8783;52.448;4.638;2023-11-21T04:34:55;2.20;;;1.13;;
17330;SDS011;8783;52.448;4.638;2023-11-21T04:37:21;4.03;;;1.48;;
17330;SDS011;8783;52.448;4.638;2023-11-21T04:39:47;2.15;;;1.23;;
17330;SDS011;8783;52.448;4.638;2023-11-21T04:42:13;2.90;;;1.50;;
17330;SDS011;8783;52.448;4.638;2023-11-21T04:44:38;2.53;;;1.17;;
17330;SDS011;8783;52.448;4.638;2023-11-21T04:47:06;2.03;;;1.15;;
17330;SDS011;8783;52.448;4.638;2023-11-21T04:49:32;2.10;;;1.13;;
17330;SDS011;8783;52.448;4.638;2023-11-21T04:51:58;2.90;;;1.20;;
17330;SDS011;8783;52.448;4.638;2023-11-21T04:54:24;2.65;;;1.10;;
17330;SDS011;8783;52.448;4.638;2023-11-21T04:56:49;3.08;;;1.30;;
17330;SDS011;8783;52.448;4.638;2023-11-21T04:59:15;1.83;;;1.05;;
17330;SDS011;8783;52.448;4.638;2023-11-21T05:01:40;1.48;;;0.85;;
17330;SDS011;8783;52.448;4.638;2023-11-21T05:04:06;2.92;;;1.20;;
17330;SDS011;8783;52.448;4.638;2023-11-21T05:06:33;2.13;;;1.00;;
17330;SDS011;8783;52.448;4.638;2023-11-21T05:08:59;1.75;;;1.20;;
17330;SDS011;8783;52.448;4.638;2023-11-21T05:11:25;1.45;;;1.00;;
17330;SDS011;8783;52.448;4.638;2023-11-21T05:13:51;2.50;;;1.20;;
17330;SDS011;8783;52.448;4.638;2023-11-21T05:16:18;1.88;;;1.10;;
17330;SDS011;8783;52.448;4.638;2023-11-21T05:18:47;1.73;;;1.10;;
17330;SDS011;8783;52.448;4.638;2023-11-21T05:21:12;1.70;;;1.02;;
17330;SDS011;8783;52.448;4.638;2023-11-21T05:23:38;2.15;;;1.08;;
17330;SDS011;8783;52.448;4.638;2023-11-21T05:26:05;2.20;;;1.35;;
17330;SDS011;8783;52.448;4.638;2023-11-21T05:28:30;1.58;;;0.98;;
17330;SDS011;8783;52.448;4.638;2023-11-21T05:30:56;0.98;;;0.73;;
17330;SDS011;8783;52.448;4.638;2023-11-21T05:33:21;2.65;;;1.23;;
17330;SDS011;8783;52.448;4.638;2023-11-21T05:35:47;1.38;;;0.98;;
17330;SDS011;8783;52.448;4.638;2023-11-21T05:38:15;1.88;;;0.90;;
17330;SDS011;8783;52.448;4.638;2023-11-21T05:40:41;1.85;;;1.20;;
17330;SDS011;8783;52.448;4.638;2023-11-21T05:43:06;2.00;;;0.90;;
17330;SDS011;8783;52.448;4.638;2023-11-21T05:45:32;3.47;;;0.90;;
17330;SDS011;8783;52.448;4.638;2023-11-21T05:47:58;3.65;;;1.13;;
17330;SDS011;8783;52.448;4.638;2023-11-21T05:50:24;1.10;;;0.85;;
17330;SDS011;8783;52.448;4.638;2023-11-21T05:52:49;1.38;;;0.82;;
17330;SDS011;8783;52.448;4.638;2023-11-21T05:55:15;1.13;;;0.60;;
17330;SDS011;8783;52.448;4.638;2023-11-21T05:57:42;1.55;;;0.80;;
17330;SDS011;8783;52.448;4.638;2023-11-21T06:00:09;1.52;;;1.00;;
17330;SDS011;8783;52.448;4.638;2023-11-21T06:02:37;3.25;;;0.90;;
17330;SDS011;8783;52.448;4.638;2023-11-21T06:05:03;1.15;;;0.80;;
17330;SDS011;8783;52.448;4.638;2023-11-21T06:07:29;1.80;;;0.70;;
17330;SDS011;8783;52.448;4.638;2023-11-21T06:09:55;2.13;;;0.77;;
17330;SDS011;8783;52.448;4.638;2023-11-21T06:12:21;1.35;;;0.85;;
17330;SDS011;8783;52.448;4.638;2023-11-21T06:14:46;1.75;;;0.80;;
17330;SDS011;8783;52.448;4.638;2023-11-21T06:17:13;1.63;;;0.90;;
17330;SDS011;8783;52.448;4.638;2023-11-21T06:19:38;1.42;;;0.85;;
17330;SDS011;8783;52.448;4.638;2023-11-21T06:22:05;1.95;;;0.85;;
17330;SDS011;8783;52.448;4.638;2023-11-21T06:24:30;1.15;;;0.70;;
17330;SDS011;8783;52.448;4.638;2023-11-21T06:26:56;1.83;;;0.80;;
17330;SDS011;8783;52.448;4.638;2023-11-21T06:29:22;1.55;;;0.65;;
17330;SDS011;8783;52.448;4.638;2023-11-21T06:31:48;2.72;;;1.10;;
17330;SDS011;8783;52.448;4.638;2023-11-21T06:34:14;1.10;;;0.70;;
17330;SDS011;8783;52.448;4.638;2023-11-21T06:36:39;2.30;;;0.90;;
17330;SDS011;8783;52.448;4.638;2023-11-21T06:39:05;1.35;;;0.70;;
17330;SDS011;8783;52.448;4.638;2023-11-21T06:41:32;1.02;;;0.60;;
17330;SDS011;8783;52.448;4.638;2023-11-21T06:43:58;2.08;;;0.77;;
17330;SDS011;8783;52.448;4.638;2023-11-21T06:46:24;0.88;;;0.68;;
17330;SDS011;8783;52.448;4.638;2023-11-21T06:48:49;3.58;;;0.70;;
17330;SDS011;8783;52.448;4.638;2023-11-21T06:51:15;0.95;;;0.60;;
17330;SDS011;8783;52.448;4.638;2023-11-21T06:53:41;2.58;;;0.90;;
17330;SDS011;8783;52.448;4.638;2023-11-21T06:56:19;8.02;;;1.02;;
17330;SDS011;8783;52.448;4.638;2023-11-21T06:58:45;5.85;;;1.00;;
17330;SDS011;8783;52.448;4.638;2023-11-21T07:01:11;4.00;;;1.02;;
17330;SDS011;8783;52.448;4.638;2023-11-21T07:03:38;4.00;;;1.48;;
17330;SDS011;8783;52.448;4.638;2023-11-21T07:06:04;5.65;;;1.67;;
17330;SDS011;8783;52.448;4.638;2023-11-21T07:08:30;3.83;;;1.70;;
17330;SDS011;8783;52.448;4.638;2023-11-21T07:10:56;6.30;;;1.90;;
17330;SDS011;8783;52.448;4.638;2023-11-21T07:13:22;5.78;;;1.65;;
17330;SDS011;8783;52.448;4.638;2023-11-21T07:15:48;5.57;;;1.83;;
17330;SDS011;8783;52.448;4.638;2023-11-21T07:18:14;4.43;;;1.75;;
17330;SDS011;8783;52.448;4.638;2023-11-21T07:20:39;4.03;;;1.77;;
17330;SDS011;8783;52.448;4.638;2023-11-21T07:23:05;7.35;;;2.08;;
17330;SDS011;8783;52.448;4.638;2023-11-21T07:25:31;6.40;;;1.80;;
17330;SDS011;8783;52.448;4.638;2023-11-21T07:27:58;5.60;;;1.70;;
17330;SDS011;8783;52.448;4.638;2023-11-21T07:30:24;3.55;;;1.80;;
17330;SDS011;8783;52.448;4.638;2023-11-21T07:32:50;3.85;;;1.77;;
17330;SDS011;8783;52.448;4.638;2023-11-21T07:35:15;7.22;;;2.25;;
17330;SDS011;8783;52.448;4.638;2023-11-21T07:37:41;3.13;;;1.52;;
17330;SDS011;8783;52.448;4.638;2023-11-21T07:40:08;6.55;;;1.70;;
17330;SDS011;8783;52.448;4.638;2023-11-21T07:42:34;7.90;;;2.08;;
17330;SDS011;8783;52.448;4.638;2023-11-21T07:45:00;7.30;;;1.80;;
17330;SDS011;8783;52.448;4.638;2023-11-21T07:47:27;6.97;;;1.70;;
17330;SDS011;8783;52.448;4.638;2023-11-21T07:49:53;5.78;;;1.98;;
17330;SDS011;8783;52.448;4.638;2023-11-21T07:52:20;6.47;;;1.67;;
17330;SDS011;8783;52.448;4.638;2023-11-21T07:54:47;10.57;;;2.15;;
17330;SDS011;8783;52.448;4.638;2023-11-21T07:57:12;12.52;;;2.03;;
17330;SDS011;8783;52.448;4.638;2023-11-21T07:59:41;15.88;;;2.38;;
17330;SDS011;8783;52.448;4.638;2023-11-21T08:02:07;8.02;;;2.05;;
17330;SDS011;8783;52.448;4.638;2023-11-21T08:04:33;8.90;;;1.85;;
17330;SDS011;8783;52.448;4.638;2023-11-21T08:07:00;8.20;;;2.10;;
17330;SDS011;8783;52.448;4.638;2023-11-21T08:09:26;9.15;;;2.22;;
17330;SDS011;8783;52.448;4.638;2023-11-21T08:11:52;12.40;;;2.75;;
17330;SDS011;8783;52.448;4.638;2023-11-21T08:14:18;9.40;;;3.00;;
17330;SDS011;8783;52.448;4.638;2023-11-21T08:16:44;11.30;;;3.25;;
17330;SDS011;8783;52.448;4.638;2023-11-21T08:19:09;9.05;;;2.85;;
17330;SDS011;8783;52.448;4.638;2023-11-21T08:21:36;11.85;;;3.20;;
17330;SDS011;8783;52.448;4.638;2023-11-21T08:24:04;9.40;;;2.90;;
17330;SDS011;8783;52.448;4.638;2023-11-21T08:26:30;12.50;;;3.08;;
17330;SDS011;8783;52.448;4.638;2023-11-21T08:28:56;16.42;;;3.47;;
17330;SDS011;8783;52.448;4.638;2023-11-21T08:31:25;9.55;;;2.75;;
17330;SDS011;8783;52.448;4.638;2023-11-21T08:33:51;12.95;;;3.17;;
17330;SDS011;8783;52.448;4.638;2023-11-21T08:36:20;15.98;;;3.20;;
17330;SDS011;8783;52.448;4.638;2023-11-21T08:38:48;10.20;;;2.70;;
17330;SDS011;8783;52.448;4.638;2023-11-21T08:41:14;8.77;;;2.80;;
17330;SDS011;8783;52.448;4.638;2023-11-21T08:43:40;10.13;;;2.20;;
17330;SDS011;8783;52.448;4.638;2023-11-21T08:46:07;9.70;;;2.53;;
17330;SDS011;8783;52.448;4.638;2023-11-21T08:48:38;11.25;;;2.35;;
17330;SDS011;8783;52.448;4.638;2023-11-21T08:51:06;7.70;;;2.17;;
17330;SDS011;8783;52.448;4.638;2023-11-21T08:53:32;8.07;;;2.63;;
17330;SDS011;8783;52.448;4.638;2023-11-21T08:55:58;7.40;;;2.45;;
17330;SDS011;8783;52.448;4.638;2023-11-21T08:58:23;7.03;;;2.35;;
17330;SDS011;8783;52.448;4.638;2023-11-21T09:00:49;7.75;;;2.20;;
17330;SDS011;8783;52.448;4.638;2023-11-21T09:03:15;5.57;;;1.75;;
17330;SDS011;8783;52.448;4.638;2023-11-21T09:05:40;5.70;;;1.70;;
17330;SDS011;8783;52.448;4.638;2023-11-21T09:08:06;6.78;;;2.08;;
17330;SDS011;8783;52.448;4.638;2023-11-21T09:10:33;7.40;;;1.75;;
17330;SDS011;8783;52.448;4.638;2023-11-21T09:13:01;5.68;;;1.80;;
17330;SDS011;8783;52.448;4.638;2023-11-21T09:15:27;4.00;;;1.73;;
17330;SDS011;8783;52.448;4.638;2023-11-21T09:17:53;6.32;;;2.25;;
17330;SDS011;8783;52.448;4.638;2023-11-21T09:20:18;4.55;;;1.85;;
17330;SDS011;8783;52.448;4.638;2023-11-21T09:22:47;6.13;;;1.60;;
17330;SDS011;8783;52.448;4.638;2023-11-21T09:25:14;4.55;;;1.38;;
17330;SDS011;8783;52.448;4.638;2023-11-21T09:27:40;4.93;;;1.80;;
17330;SDS011;8783;52.448;4.638;2023-11-21T09:30:06;4.68;;;1.10;;
17330;SDS011;8783;52.448;4.638;2023-11-21T09:32:34;5.10;;;1.58;;
17330;SDS011;8783;52.448;4.638;2023-11-21T09:35:02;5.15;;;1.58;;
17330;SDS011;8783;52.448;4.638;2023-11-21T09:37:28;4.63;;;1.55;;
17330;SDS011;8783;52.448;4.638;2023-11-21T09:39:54;4.05;;;1.63;;
17330;SDS011;8783;52.448;4.638;2023-11-21T09:42:23;3.60;;;1.63;;
17330;SDS011;8783;52.448;4.638;2023-11-21T09:47:29;4.90;;;1.45;;
17330;SDS011;8783;52.448;4.638;2023-11-21T09:49:56;3.50;;;1.45;;
17330;SDS011;8783;52.448;4.638;2023-11-21T09:52:27;3.22;;;1.40;;
17330;SDS011;8783;52.448;4.638;2023-11-21T09:54:54;3.45;;;1.58;;
17330;SDS011;8783;52.448;4.638;2023-11-21T09:57:23;2.97;;;1.40;;
17330;SDS011;8783;52.448;4.638;2023-11-21T09:59:51;2.70;;;1.05;;
17330;SDS011;8783;52.448;4.638;2023-11-21T10:02:22;3.85;;;1.38;;
17330;SDS011;8783;52.448;4.638;2023-11-21T10:04:51;3.17;;;1.33;;
17330;SDS011;8783;52.448;4.638;2023-11-21T10:07:17;6.63;;;1.20;;
17330;SDS011;8783;52.448;4.638;2023-11-21T10:09:44;2.90;;;1.27;;
17330;SDS011;8783;52.448;4.638;2023-11-21T10:12:10;1.70;;;1.20;;
17330;SDS011;8783;52.448;4.638;2023-11-21T10:14:40;2.65;;;1.30;;
17330;SDS011;8783;52.448;4.638;2023-11-21T10:17:07;2.72;;;1.25;;
17330;SDS011;8783;52.448;4.638;2023-11-21T10:19:35;3.15;;;1.38;;
17330;SDS011;8783;52.448;4.638;2023-11-21T10:22:02;4.57;;;1.20;;
17330;SDS011;8783;52.448;4.638;2023-11-21T10:24:28;4.38;;;1.50;;
17330;SDS011;8783;52.448;4.638;2023-11-21T10:26:54;2.67;;;1.15;;
17330;SDS011;8783;52.448;4.638;2023-11-21T10:29:20;1.92;;;1.10;;
17330;SDS011;8783;52.448;4.638;2023-11-21T10:31:49;3.85;;;1.55;;
17330;SDS011;8783;52.448;4.638;2023-11-21T10:34:17;2.10;;;1.10;;
17330;SDS011;8783;52.448;4.638;2023-11-21T10:36:43;1.83;;;0.93;;
17330;SDS011;8783;52.448;4.638;2023-11-21T10:39:13;2.83;;;1.48;;
17330;SDS011;8783;52.448;4.638;2023-11-21T10:41:43;2.88;;;1.00;;
17330;SDS011;8783;52.448;4.638;2023-11-21T10:44:10;2.28;;;1.20;;
17330;SDS011;8783;52.448;4.638;2023-11-21T10:46:39;3.35;;;1.20;;
17330;SDS011;8783;52.448;4.638;2023-11-21T10:49:07;2.65;;;1.20;;
17330;SDS011;8783;52.448;4.638;2023-11-21T10:51:34;1.85;;;1.13;;
17330;SDS011;8783;52.448;4.638;2023-11-21T10:54:00;2.53;;;1.10;;
17330;SDS011;8783;52.448;4.638;2023-11-21T10:56:26;2.05;;;1.08;;
17330;SDS011;8783;52.448;4.638;2023-11-21T10:58:55;2.90;;;1.65;;
17330;SDS011;8783;52.448;4.638;2023-11-21T11:01:21;2.65;;;1.20;;
17330;SDS011;8783;52.448;4.638;2023-11-21T11:03:54;2.88;;;1.00;;
17330;SDS011;8783;52.448;4.638;2023-11-21T11:06:20;2.30;;;1.00;;
17330;SDS011;8783;52.448;4.638;2023-11-21T11:08:46;3.65;;;1.20;;
17330;SDS011;8783;52.448;4.638;2023-11-21T11:11:14;2.65;;;1.45;;
17330;SDS011;8783;52.448;4.638;2023-11-21T11:13:42;2.70;;;1.40;;
17330;SDS011;8783;52.448;4.638;2023-11-21T11:16:09;2.35;;;1.20;;
17330;SDS011;8783;52.448;4.638;2023-11-21T11:18:37;2.45;;;1.10;;
17330;SDS011;8783;52.448;4.638;2023-11-21T11:24:00;6.22;;;1.17;;
17330;SDS011;8783;52.448;4.638;2023-11-21T11:29:44;4.00;;;1.38;;
17330;SDS011;8783;52.448;4.638;2023-11-21T11:32:34;3.72;;;1.40;;
17330;SDS011;8783;52.448;4.638;2023-11-21T11:35:21;5.55;;;1.20;;
17330;SDS011;8783;52.448;4.638;2023-11-21T11:38:02;5.88;;;1.50;;
17330;SDS011;8783;52.448;4.638;2023-11-21T11:43:30;4.72;;;1.63;;
17330;SDS011;8783;52.448;4.638;2023-11-21T11:45:58;2.55;;;1.20;;
17330;SDS011;8783;52.448;4.638;2023-11-21T11:48:25;2.92;;;1.50;;
17330;SDS011;8783;52.448;4.638;2023-11-21T11:53:43;5.07;;;1.48;;
17330;SDS011;8783;52.448;4.638;2023-11-21T11:56:21;2.97;;;1.40;;
17330;SDS011;8783;52.448;4.638;2023-11-21T11:58:48;4.35;;;1.60;;
17330;SDS011;8783;52.448;4.638;2023-11-21T12:01:16;2.13;;;1.15;;
17330;SDS011;8783;52.448;4.638;2023-11-21T12:04:21;3.40;;;1.17;;
17330;SDS011;8783;52.448;4.638;2023-11-21T12:06:42;4.75;;;1.48;;
17330;SDS011;8783;52.448;4.638;2023-11-21T12:09:18;2.50;;;1.25;;
17330;SDS011;8783;52.448;4.638;2023-11-21T12:11:46;2.22;;;1.08;;
17330;SDS011;8783;52.448;4.638;2023-11-21T12:14:16;3.45;;;1.30;;
17330;SDS011;8783;52.448;4.638;2023-11-21T12:16:43;1.73;;;1.35;;
17330;SDS011;8783;52.448;4.638;2023-11-21T12:19:11;2.35;;;1.20;;
17330;SDS011;8783;52.448;4.638;2023-11-21T12:21:41;3.22;;;1.50;;
17330;SDS011;8783;52.448;4.638;2023-11-21T12:24:07;2.28;;;1.23;;
17330;SDS011;8783;52.448;4.638;2023-11-21T12:26:38;3.88;;;1.30;;
17330;SDS011;8783;52.448;4.638;2023-11-21T12:29:04;2.33;;;1.30;;
17330;SDS011;8783;52.448;4.638;2023-11-21T12:31:32;2.85;;;1.45;;
17330;SDS011;8783;52.448;4.638;2023-11-21T12:33:59;4.10;;;1.42;;
17330;SDS011;8783;52.448;4.638;2023-11-21T12:36:25;3.63;;;1.27;;
17330;SDS011;8783;52.448;4.638;2023-11-21T12:38:51;2.50;;;1.40;;
17330;SDS011;8783;52.448;4.638;2023-11-21T12:41:16;2.10;;;1.20;;
17330;SDS011;8783;52.448;4.638;2023-11-21T12:43:42;4.65;;;1.65;;
17330;SDS011;8783;52.448;4.638;2023-11-21T12:46:09;2.78;;;1.27;;
17330;SDS011;8783;52.448;4.638;2023-11-21T12:48:39;5.43;;;1.25;;
17330;SDS011;8783;52.448;4.638;2023-11-21T12:51:09;2.38;;;1.33;;
17330;SDS011;8783;52.448;4.638;2023-11-21T12:53:36;2.78;;;1.00;;
17330;SDS011;8783;52.448;4.638;2023-11-21T12:56:06;1.67;;;1.00;;
17330;SDS011;8783;52.448;4.638;2023-11-21T12:58:34;2.15;;;1.23;;
17330;SDS011;8783;52.448;4.638;2023-11-21T13:01:01;2.85;;;1.30;;
17330;SDS011;8783;52.448;4.638;2023-11-21T13:03:29;3.80;;;1.50;;
17330;SDS011;8783;52.448;4.638;2023-11-21T13:05:55;1.90;;;1.00;;
17330;SDS011;8783;52.448;4.638;2023-11-21T13:08:22;1.83;;;1.35;;
17330;SDS011;8783;52.448;4.638;2023-11-21T13:10:49;5.57;;;1.48;;
17330;SDS011;8783;52.448;4.638;2023-11-21T13:13:20;2.03;;;1.10;;
17330;SDS011;8783;52.448;4.638;2023-11-21T13:18:15;3.78;;;1.25;;
17330;SDS011;8783;52.448;4.638;2023-11-21T13:20:42;2.53;;;1.40;;
17330;SDS011;8783;52.448;4.638;2023-11-21T13:23:09;2.33;;;1.58;;
17330;SDS011;8783;52.448;4.638;2023-11-21T13:25:37;3.92;;;1.27;;
17330;SDS011;8783;52.448;4.638;2023-11-21T13:28:06;1.75;;;1.10;;
17330;SDS011;8783;52.448;4.638;2023-11-21T13:30:32;2.83;;;1.30;;
17330;SDS011;8783;52.448;4.638;2023-11-21T13:33:01;1.50;;;1.17;;
17330;SDS011;8783;52.448;4.638;2023-11-21T13:35:35;5.10;;;1.33;;
17330;SDS011;8783;52.448;4.638;2023-11-21T13:38:05;3.30;;;1.50;;
17330;SDS011;8783;52.448;4.638;2023-11-21T13:40:34;2.55;;;1.35;;
17330;SDS011;8783;52.448;4.638;2023-11-21T13:43:07;3.58;;;1.63;;
17330;SDS011;8783;52.448;4.638;2023-11-21T13:45:37;2.35;;;1.35;;
17330;SDS011;8783;52.448;4.638;2023-11-21T13:48:07;3.95;;;1.60;;
17330;SDS011;8783;52.448;4.638;2023-11-21T13:50:41;3.33;;;1.42;;
17330;SDS011;8783;52.448;4.638;2023-11-21T13:53:20;4.15;;;1.88;;
17330;SDS011;8783;52.448;4.638;2023-11-21T13:55:51;3.63;;;1.40;;
17330;SDS011;8783;52.448;4.638;2023-11-21T13:58:22;3.20;;;1.70;;
17330;SDS011;8783;52.448;4.638;2023-11-21T14:00:59;5.65;;;1.48;;
17330;SDS011;8783;52.448;4.638;2023-11-21T14:03:26;3.75;;;1.60;;
17330;SDS011;8783;52.448;4.638;2023-11-21T14:06:04;2.95;;;1.48;;
17330;SDS011;8783;52.448;4.638;2023-11-21T14:08:39;3.35;;;1.50;;
17330;SDS011;8783;52.448;4.638;2023-11-21T14:11:06;4.72;;;1.60;;
17330;SDS011;8783;52.448;4.638;2023-11-21T14:13:32;2.70;;;1.70;;
17330;SDS011;8783;52.448;4.638;2023-11-21T14:15:58;4.28;;;1.55;;
17330;SDS011;8783;52.448;4.638;2023-11-21T14:18:28;4.70;;;1.80;;
17330;SDS011;8783;52.448;4.638;2023-11-21T14:21:03;3.35;;;1.60;;
17330;SDS011;8783;52.448;4.638;2023-11-21T14:23:30;2.42;;;1.48;;
17330;SDS011;8783;52.448;4.638;2023-11-21T14:25:58;4.25;;;1.60;;
17330;SDS011;8783;52.448;4.638;2023-11-21T14:28:26;3.53;;;1.55;;
17330;SDS011;8783;52.448;4.638;2023-11-21T14:30:51;3.83;;;1.33;;
17330;SDS011;8783;52.448;4.638;2023-11-21T14:33:19;2.80;;;1.50;;
17330;SDS011;8783;52.448;4.638;2023-11-21T14:35:45;4.10;;;1.45;;
17330;SDS011;8783;52.448;4.638;2023-11-21T14:38:12;5.82;;;1.20;;
17330;SDS011;8783;52.448;4.638;2023-11-21T14:40:39;4.30;;;1.60;;
17330;SDS011;8783;52.448;4.638;2023-11-21T14:43:05;4.75;;;1.30;;
17330;SDS011;8783;52.448;4.638;2023-11-21T14:45:32;3.78;;;1.20;;
17330;SDS011;8783;52.448;4.638;2023-11-21T14:47:58;3.95;;;1.77;;
17330;SDS011;8783;52.448;4.638;2023-11-21T14:50:41;3.83;;;1.50;;
17330;SDS011;8783;52.448;4.638;2023-11-21T14:53:07;2.88;;;1.58;;
17330;SDS011;8783;52.448;4.638;2023-11-21T14:55:35;3.50;;;1.67;;
17330;SDS011;8783;52.448;4.638;2023-11-21T14:58:16;4.40;;;1.80;;
17330;SDS011;8783;52.448;4.638;2023-11-21T15:00:51;3.22;;;1.23;;
17330;SDS011;8783;52.448;4.638;2023-11-21T15:03:22;5.25;;;1.52;;
17330;SDS011;8783;52.448;4.638;2023-11-21T15:06:08;2.20;;;1.45;;
17330;SDS011;8783;52.448;4.638;2023-11-21T15:08:48;3.88;;;1.75;;
17330;SDS011;8783;52.448;4.638;2023-11-21T15:11:20;5.28;;;1.90;;
17330;SDS011;8783;52.448;4.638;2023-11-21T15:13:50;9.98;;;1.80;;
17330;SDS011;8783;52.448;4.638;2023-11-21T15:16:17;7.33;;;2.00;;
17330;SDS011;8783;52.448;4.638;2023-11-21T15:18:43;5.07;;;2.00;;